createdAt,value
2023-05-11T00:02:07.954Z,59.03
2023-05-11T00:04:36.434Z,59.91
2023-05-11T00:07:03.610Z,60.75
2023-05-11T00:09:31.035Z,61.05
2023-05-11T00:11:58.190Z,59.64
2023-05-11T00:14:25.317Z,58.12
2023-05-11T00:16:52.315Z,57.79
2023-05-11T00:19:19.268Z,59.11
2023-05-11T00:21:46.735Z,59.38
2023-05-11T00:24:13.855Z,58.45
2023-05-11T00:26:41.070Z,58.78
2023-05-11T00:29:08.072Z,59.53
2023-05-11T00:31:35.407Z,59.88
2023-05-11T00:34:02.649Z,61.09
2023-05-11T00:36:29.882Z,60.99
2023-05-11T00:38:56.868Z,59.21
2023-05-11T00:41:23.941Z,58.51
2023-05-11T00:43:51.064Z,58.53
2023-05-11T00:46:18.133Z,58.91
2023-05-11T00:48:45.358Z,58.96
2023-05-11T00:51:13.511Z,59.57
2023-05-11T00:53:40.790Z,60.03
2023-05-11T00:56:07.821Z,60.70
2023-05-11T00:58:36.085Z,61.12
2023-05-11T01:01:03.708Z,61.42
2023-05-11T01:03:32.343Z,59.93
2023-05-11T01:06:17.792Z,58.92
2023-05-11T01:08:53.061Z,58.83
2023-05-11T01:11:28.980Z,59.56
2023-05-11T01:13:59.781Z,59.97
2023-05-11T01:16:26.923Z,60.11
2023-05-11T01:19:02.474Z,60.70
2023-05-11T01:21:34.301Z,60.88
2023-05-11T01:24:34.329Z,61.62
2023-05-11T01:27:23.848Z,60.88
2023-05-11T01:30:16.465Z,59.87
2023-05-11T01:32:44.015Z,59.52
2023-05-11T01:35:14.955Z,59.57
2023-05-11T01:37:41.930Z,59.80
2023-05-11T01:40:12.890Z,60.37
2023-05-11T01:42:42.534Z,60.58
2023-05-11T01:45:10.122Z,61.12
2023-05-11T01:47:37.445Z,62.13
2023-05-11T01:50:04.843Z,62.42
2023-05-11T01:52:33.679Z,62.27
2023-05-11T01:55:00.832Z,60.93
2023-05-11T01:57:27.870Z,59.96
2023-05-11T01:59:55.047Z,59.90
2023-05-11T02:02:22.392Z,60.18
2023-05-11T02:04:49.744Z,60.66
2023-05-11T02:07:17.501Z,61.38
2023-05-11T02:09:44.596Z,62.19
2023-05-11T02:12:12.508Z,62.68
2023-05-11T02:14:39.762Z,62.58
2023-05-11T02:17:07.652Z,61.03
2023-05-11T02:19:36.313Z,60.39
2023-05-11T02:22:03.708Z,60.25
2023-05-11T02:24:32.048Z,60.54
2023-05-11T02:26:59.341Z,59.67
2023-05-11T02:29:26.532Z,62.01
2023-05-11T02:31:57.474Z,62.39
2023-05-11T02:34:28.966Z,62.58
2023-05-11T02:36:59.259Z,63.56
2023-05-11T02:39:31.128Z,63.35
2023-05-11T02:41:58.697Z,61.98
2023-05-11T02:44:28.842Z,61.10
2023-05-11T02:46:56.721Z,60.99
2023-05-11T02:49:24.076Z,61.14
2023-05-11T02:51:51.792Z,61.59
2023-05-11T02:54:19.580Z,62.27
2023-05-11T02:56:49.050Z,62.85
2023-05-11T02:59:16.298Z,63.43
2023-05-11T03:01:43.683Z,62.96
2023-05-11T03:04:11.324Z,61.90
2023-05-11T03:06:38.471Z,61.47
2023-05-11T03:09:09.335Z,61.41
2023-05-11T03:11:40.080Z,61.89
2023-05-11T03:14:07.205Z,62.43
2023-05-11T03:16:34.747Z,62.37
2023-05-11T03:19:02.221Z,62.69
2023-05-11T03:21:29.750Z,63.10
2023-05-11T03:23:56.929Z,62.76
2023-05-11T03:26:23.924Z,61.41
2023-05-11T03:28:51.141Z,60.26
2023-05-11T03:31:19.062Z,59.79
2023-05-11T03:33:46.786Z,59.85
2023-05-11T03:36:14.298Z,60.44
2023-05-11T03:38:41.333Z,60.63
2023-05-11T03:41:11.710Z,60.80
2023-05-11T03:43:38.716Z,61.23
2023-05-11T03:46:06.324Z,62.03
2023-05-11T03:48:33.705Z,61.39
2023-05-11T03:51:00.789Z,59.57
2023-05-11T03:53:28.221Z,58.57
2023-05-11T03:55:56.025Z,58.38
2023-05-11T03:58:23.441Z,58.60
2023-05-11T04:00:50.507Z,58.59
2023-05-11T04:03:18.208Z,58.66
2023-05-11T04:05:45.622Z,58.63
2023-05-11T04:08:13.392Z,59.18
2023-05-11T04:10:40.457Z,59.21
2023-05-11T04:13:08.165Z,56.11
2023-05-11T04:15:37.741Z,55.96
2023-05-11T04:18:05.073Z,57.35
2023-05-11T04:20:32.890Z,56.27
2023-05-11T04:22:59.984Z,55.34
2023-05-11T04:25:27.643Z,55.03
2023-05-11T04:27:54.704Z,56.32
2023-05-11T04:30:22.094Z,56.45
2023-05-11T04:32:49.414Z,56.82
2023-05-11T04:35:16.485Z,57.12
2023-05-11T04:37:43.467Z,58.11
2023-05-11T04:40:11.593Z,57.81
2023-05-11T04:42:41.044Z,55.58
2023-05-11T04:45:12.776Z,54.09
2023-05-11T04:47:40.057Z,53.62
2023-05-11T04:50:08.346Z,52.48
2023-05-11T04:52:37.584Z,51.94
2023-05-11T04:55:04.991Z,50.54
2023-05-11T04:57:33.266Z,50.62
2023-05-11T05:00:01.203Z,49.44
2023-05-11T05:02:29.651Z,48.71
2023-05-11T05:04:56.561Z,48.03
2023-05-11T05:07:24.258Z,46.54
2023-05-11T05:09:51.319Z,45.17
2023-05-11T05:12:18.924Z,44.35
2023-05-11T05:14:46.333Z,41.49
2023-05-11T05:17:13.652Z,41.12
2023-05-11T05:19:41.727Z,39.90
2023-05-11T05:22:08.761Z,40.19
2023-05-11T05:24:36.986Z,40.01
2023-05-11T05:27:04.819Z,39.71
2023-05-11T05:29:31.889Z,39.61
2023-05-11T05:31:59.955Z,40.49
2023-05-11T05:34:27.484Z,40.82
2023-05-11T05:36:54.468Z,40.11
2023-05-11T05:39:21.457Z,37.98
2023-05-11T05:41:48.639Z,37.14
2023-05-11T05:44:15.698Z,36.03
2023-05-11T05:46:42.975Z,36.53
2023-05-11T05:49:09.947Z,36.89
2023-05-11T05:51:37.781Z,35.91
2023-05-11T05:54:05.499Z,34.90
2023-05-11T05:56:35.182Z,34.31
2023-05-11T05:59:02.240Z,34.00
2023-05-11T06:01:30.413Z,34.75
2023-05-11T06:03:58.099Z,33.64
2023-05-11T06:06:26.103Z,33.40
2023-05-11T06:08:53.777Z,33.63
2023-05-11T06:11:21.911Z,32.70
2023-05-11T06:13:49.026Z,31.52
2023-05-11T06:16:16.031Z,31.62
2023-05-11T06:18:43.034Z,30.08
2023-05-11T06:21:10.915Z,29.18
2023-05-11T06:23:38.113Z,28.03
2023-05-11T06:26:05.156Z,28.80
2023-05-11T06:28:32.654Z,28.59
2023-05-11T06:31:03.853Z,28.54
2023-05-11T06:33:33.620Z,27.77
2023-05-11T06:36:07.383Z,25.68
2023-05-11T06:38:35.714Z,25.78
2023-05-11T06:41:02.789Z,25.54
2023-05-11T06:43:31.743Z,25.73
2023-05-11T06:46:01.511Z,25.31
2023-05-11T06:48:30.004Z,25.86
2023-05-11T06:50:58.716Z,25.59
2023-05-11T06:53:25.651Z,26.45
2023-05-11T06:55:54.739Z,25.93
2023-05-11T06:58:21.717Z,25.36
2023-05-11T07:00:48.704Z,25.55
2023-05-11T07:03:15.976Z,25.88
2023-05-11T07:05:43.256Z,25.43
2023-05-11T07:08:10.313Z,25.38
2023-05-11T07:10:38.000Z,25.93
2023-05-11T07:13:05.699Z,25.65
2023-05-11T07:15:32.717Z,25.51
2023-05-11T07:18:01.503Z,25.74
2023-05-11T07:20:28.743Z,25.97
2023-05-11T07:22:59.426Z,24.88
2023-05-11T07:25:26.610Z,25.13
2023-05-11T07:27:53.565Z,25.00
2023-05-11T07:30:21.042Z,25.52
2023-05-11T07:32:50.751Z,25.42
2023-05-11T07:35:17.714Z,25.04
2023-05-11T07:37:44.835Z,25.93
2023-05-11T07:40:12.285Z,25.88
2023-05-11T07:42:39.635Z,26.04
2023-05-11T07:45:07.595Z,26.23
2023-05-11T07:47:36.938Z,25.27
2023-05-11T07:50:04.414Z,24.59
2023-05-11T07:52:31.716Z,24.53
2023-05-11T07:54:58.756Z,25.18
2023-05-11T07:57:26.090Z,25.07
2023-05-11T07:59:53.191Z,25.10
2023-05-11T08:02:20.378Z,25.03
2023-05-11T08:04:47.462Z,25.51
2023-05-11T08:07:14.766Z,25.39
2023-05-11T08:09:41.686Z,25.12
2023-05-11T08:12:10.493Z,24.52
2023-05-11T08:14:37.972Z,25.03
2023-05-11T08:17:05.901Z,23.94
2023-05-11T08:19:32.970Z,25.03
2023-05-11T08:22:01.282Z,24.35
2023-05-11T08:24:29.015Z,23.78
2023-05-11T08:26:56.829Z,25.12
2023-05-11T08:29:27.378Z,24.51
2023-05-11T08:31:54.567Z,23.26
2023-05-11T08:34:22.523Z,23.49
2023-05-11T08:36:49.719Z,23.85
2023-05-11T08:39:24.940Z,23.92
2023-05-11T08:42:00.680Z,23.57
2023-05-11T08:44:27.685Z,23.30
2023-05-11T08:47:08.627Z,23.62
2023-05-11T08:49:42.170Z,23.28
2023-05-11T08:52:09.141Z,23.58
2023-05-11T08:54:36.188Z,23.52
2023-05-11T08:57:03.185Z,23.62
2023-05-11T08:59:30.538Z,24.26
2023-05-11T09:01:57.474Z,24.34
2023-05-11T09:04:24.405Z,23.75
2023-05-11T09:06:51.628Z,24.24
2023-05-11T09:09:18.515Z,24.15
2023-05-11T09:11:45.962Z,24.17
2023-05-11T09:14:13.134Z,24.66
2023-05-11T09:16:40.144Z,23.91
2023-05-11T09:19:07.620Z,23.64
2023-05-11T09:21:35.898Z,23.69
2023-05-11T09:24:02.923Z,24.04
2023-05-11T09:26:32.495Z,24.20
2023-05-11T09:31:43.678Z,23.72
2023-05-11T09:34:17.416Z,22.89
2023-05-11T09:36:45.744Z,22.44
2023-05-11T09:39:28.455Z,23.78
2023-05-11T09:48:22.358Z,26.78
2023-05-11T09:50:50.251Z,24.71
2023-05-11T09:53:17.935Z,24.37
2023-05-11T09:55:52.143Z,24.28
2023-05-11T09:58:19.229Z,23.15
2023-05-11T10:00:51.285Z,23.23
2023-05-11T10:03:18.452Z,23.60
2023-05-11T10:06:01.460Z,22.53
2023-05-11T10:08:30.381Z,22.63
2023-05-11T10:10:57.752Z,22.96
2023-05-11T10:13:25.017Z,23.16
2023-05-11T10:15:52.295Z,22.82
2023-05-11T10:18:20.348Z,22.18
2023-05-11T10:20:47.802Z,21.88
2023-05-11T10:23:15.185Z,22.57
2023-05-11T10:25:42.309Z,22.50
2023-05-11T10:28:09.559Z,22.88
2023-05-11T10:30:37.498Z,22.57
2023-05-11T10:33:05.268Z,21.56
2023-05-11T10:35:32.865Z,22.60
2023-05-11T10:37:59.847Z,23.59
2023-05-11T10:40:27.270Z,24.25
2023-05-11T10:43:12.816Z,24.73
2023-05-11T10:45:52.262Z,25.35
2023-05-11T10:48:52.236Z,25.07
2023-05-11T10:51:44.103Z,25.49
2023-05-11T10:54:59.491Z,25.63
2023-05-11T10:58:03.671Z,26.28
2023-05-11T11:00:58.690Z,27.07
2023-05-11T11:03:25.900Z,26.89
2023-05-11T11:05:52.894Z,26.71
2023-05-11T11:08:20.318Z,26.79
2023-05-11T11:10:49.461Z,26.76
2023-05-11T11:13:17.539Z,26.73
2023-05-11T11:15:54.078Z,26.62
2023-05-11T11:18:22.563Z,26.71
2023-05-11T11:20:50.862Z,26.41
2023-05-11T11:23:43.850Z,26.88
2023-05-11T11:26:15.861Z,26.56
2023-05-11T11:28:55.075Z,26.82
2023-05-11T11:31:26.363Z,26.99
2023-05-11T11:33:58.706Z,26.58
2023-05-11T11:37:04.134Z,25.25
2023-05-11T11:39:43.519Z,24.97
2023-05-11T11:42:15.288Z,24.16
2023-05-11T11:44:42.921Z,24.08
2023-05-11T11:47:13.782Z,24.82
2023-05-11T11:49:43.026Z,25.18
2023-05-11T11:52:36.135Z,24.90
2023-05-11T11:55:04.182Z,23.26
2023-05-11T11:57:34.751Z,23.91
2023-05-11T12:00:05.782Z,23.30
2023-05-11T12:02:43.318Z,23.06
2023-05-11T12:05:18.418Z,23.52
2023-05-11T15:45:35.212Z,32.87
2023-05-11T15:48:02.878Z,31.87
2023-05-11T15:50:30.381Z,31.36
2023-05-11T15:52:57.522Z,31.08
2023-05-11T15:55:26.842Z,30.77
2023-05-11T15:57:54.561Z,30.37
2023-05-11T16:00:21.717Z,30.29
2023-05-11T16:02:49.475Z,30.63
2023-05-11T16:05:16.681Z,30.60
2023-05-11T16:07:44.114Z,30.60
2023-05-11T16:10:11.373Z,30.41
2023-05-11T16:12:38.423Z,30.34
2023-05-11T16:15:06.825Z,30.24
2023-05-11T16:17:34.100Z,30.27
2023-05-11T16:20:01.316Z,30.76
2023-05-11T16:22:28.852Z,31.07
2023-05-11T16:24:55.850Z,31.21
2023-05-11T16:27:23.180Z,31.17
2023-05-11T16:29:51.223Z,31.29
2023-05-11T16:32:20.283Z,31.46
2023-05-11T16:34:47.485Z,31.73
2023-05-11T16:37:14.432Z,32.19
2023-05-11T16:39:41.516Z,32.18
2023-05-11T16:42:08.495Z,32.44
2023-05-11T16:44:36.035Z,32.73
2023-05-11T16:47:03.674Z,32.80
2023-05-11T16:49:30.745Z,33.02
2023-05-11T16:51:57.668Z,33.16
2023-05-11T16:54:27.053Z,33.03
2023-05-11T16:56:54.068Z,33.04
2023-05-11T16:59:21.126Z,33.33
2023-05-11T17:01:48.167Z,33.46
2023-05-11T17:04:15.236Z,33.69
2023-05-11T17:06:42.418Z,33.80
2023-05-11T17:09:09.487Z,33.90
2023-05-11T17:11:37.138Z,34.07
2023-05-11T17:14:04.214Z,34.08
2023-05-11T17:16:31.357Z,34.16
2023-05-11T17:18:59.313Z,34.46
2023-05-11T17:21:26.333Z,34.69
2023-05-11T17:23:53.337Z,34.80
2023-05-11T17:26:21.184Z,35.17
2023-05-11T17:28:52.127Z,35.36
2023-05-11T17:31:19.203Z,35.35
2023-05-11T17:33:47.413Z,35.69
2023-05-11T17:36:14.477Z,35.78
2023-05-11T17:38:43.293Z,36.14
2023-05-11T17:41:10.315Z,36.03
2023-05-11T17:43:38.093Z,36.22
2023-05-11T17:46:05.638Z,36.59
2023-05-11T17:48:33.251Z,36.62
2023-05-11T17:51:00.343Z,36.66
2023-05-11T17:53:27.472Z,36.65
2023-05-11T17:55:54.487Z,37.01
2023-05-11T17:58:21.862Z,37.10
2023-05-11T18:00:49.520Z,37.19
2023-05-11T18:03:17.558Z,37.28
2023-05-11T18:05:49.064Z,37.29
2023-05-11T18:08:16.877Z,37.36
2023-05-11T18:10:44.628Z,37.30
2023-05-11T18:13:12.242Z,37.26
2023-05-11T18:15:39.393Z,37.13
2023-05-11T18:18:06.502Z,37.30
2023-05-11T18:20:33.788Z,37.17
2023-05-11T18:23:00.806Z,37.47
2023-05-11T18:25:31.956Z,37.43
2023-05-11T18:28:02.267Z,37.57
2023-05-11T18:30:29.781Z,37.98
2023-05-11T18:32:56.954Z,37.77
2023-05-11T18:35:24.154Z,38.17
2023-05-11T18:37:51.159Z,38.21
2023-05-11T18:40:18.651Z,38.55
2023-05-11T18:42:47.306Z,38.59
2023-05-11T18:45:14.570Z,38.72
2023-05-11T18:47:46.266Z,38.62
2023-05-11T18:50:14.198Z,39.14
2023-05-11T18:52:41.740Z,39.27
2023-05-11T18:55:09.666Z,39.49
2023-05-11T18:57:39.448Z,39.56
2023-05-11T19:00:07.173Z,39.96
2023-05-11T19:02:34.800Z,40.55
2023-05-11T19:05:02.146Z,40.47
2023-05-11T19:07:29.369Z,40.78
2023-05-11T19:09:56.552Z,40.51
2023-05-11T19:12:23.638Z,40.70
2023-05-11T19:14:55.416Z,41.46
2023-05-11T19:17:23.296Z,41.20
2023-05-11T19:19:51.470Z,41.91
2023-05-11T19:22:21.631Z,42.29
2023-05-11T19:24:49.057Z,42.67
2023-05-11T19:27:17.340Z,43.15
2023-05-11T19:29:47.848Z,43.05
2023-05-11T19:32:15.760Z,43.61
2023-05-11T19:34:43.948Z,43.06
2023-05-11T19:37:10.834Z,43.48
2023-05-11T19:39:37.832Z,43.51
2023-05-11T19:42:04.894Z,43.48
2023-05-11T19:44:33.235Z,44.03
2023-05-11T19:47:00.305Z,43.80
2023-05-11T19:49:28.222Z,44.26
2023-05-11T19:51:55.232Z,44.45
2023-05-11T19:54:22.344Z,44.29
2023-05-11T19:56:49.831Z,45.71
2023-05-11T19:59:16.804Z,45.29
2023-05-11T20:01:44.472Z,44.91
2023-05-11T20:04:12.795Z,45.33
2023-05-11T20:06:39.915Z,45.51
2023-05-11T20:09:07.328Z,46.31
2023-05-11T20:11:34.612Z,45.79
2023-05-11T20:14:01.540Z,46.57
2023-05-11T20:16:30.539Z,47.31
2023-05-11T20:18:59.425Z,46.58
2023-05-11T20:21:26.570Z,47.34
2023-05-11T20:23:53.600Z,48.05
2023-05-11T20:26:20.575Z,46.92
2023-05-11T20:28:47.488Z,47.16
2023-05-11T20:31:14.537Z,47.22
2023-05-11T20:36:14.319Z,47.92
2023-05-11T20:38:41.511Z,47.29
2023-05-11T20:41:08.469Z,48.60
2023-05-11T20:43:35.724Z,48.12
2023-05-11T20:46:03.629Z,48.04
2023-05-11T20:48:40.338Z,48.55
2023-05-11T20:51:08.685Z,48.13
2023-05-11T20:53:36.002Z,47.83
2023-05-11T20:56:03.357Z,47.64
2023-05-11T20:58:31.632Z,47.84
2023-05-11T21:00:59.084Z,47.41
2023-05-11T21:03:26.934Z,48.01
2023-05-11T21:05:54.024Z,47.77
2023-05-11T21:08:21.962Z,46.80
2023-05-11T21:10:49.032Z,47.44
2023-05-11T21:13:16.456Z,47.94
2023-05-11T21:15:43.447Z,48.21
2023-05-11T21:18:10.619Z,47.51
2023-05-11T21:20:37.661Z,48.67
2023-05-11T21:23:04.830Z,47.33
2023-05-11T21:25:31.827Z,48.21
2023-05-11T21:28:01.014Z,48.54
2023-05-11T21:30:28.343Z,47.91
2023-05-11T21:32:55.449Z,48.98
2023-05-11T21:35:22.590Z,49.17
2023-05-11T21:37:50.086Z,49.71
2023-05-11T21:40:17.964Z,50.48
2023-05-11T21:42:45.420Z,48.46
2023-05-11T21:45:12.585Z,47.91
2023-05-11T21:47:40.550Z,48.31
2023-05-11T21:50:08.821Z,48.52
2023-05-11T21:52:36.981Z,47.91
2023-05-11T21:55:04.596Z,48.00
2023-05-11T21:57:32.015Z,47.68
2023-05-11T21:59:59.321Z,47.52
2023-05-11T22:02:27.196Z,46.45
2023-05-11T22:04:54.205Z,46.53
2023-05-11T22:07:21.312Z,47.01
2023-05-11T22:09:48.309Z,46.59
2023-05-11T22:12:15.269Z,46.86
2023-05-11T22:14:42.466Z,46.63
2023-05-11T22:17:10.990Z,47.21
2023-05-11T22:19:38.103Z,47.08
2023-05-11T22:22:05.320Z,47.16
2023-05-11T22:24:32.559Z,46.79
2023-05-11T22:26:59.520Z,46.20
2023-05-11T22:29:26.726Z,46.89
2023-05-11T22:31:53.835Z,46.82
2023-05-11T22:34:23.556Z,46.84
2023-05-11T22:36:50.621Z,46.38
2023-05-11T22:39:18.161Z,45.96
2023-05-11T22:41:45.154Z,46.48
2023-05-11T22:44:12.372Z,46.64
2023-05-11T22:46:39.336Z,46.41
2023-05-11T22:49:06.434Z,46.17
2023-05-11T22:51:33.390Z,46.69
2023-05-11T22:54:00.311Z,45.73
2023-05-11T22:56:27.384Z,46.76
2023-05-11T22:58:56.155Z,46.84
2023-05-11T23:01:23.138Z,46.96
2023-05-11T23:03:50.354Z,47.11
2023-05-11T23:06:17.601Z,47.13
2023-05-11T23:08:44.674Z,46.64
2023-05-11T23:11:12.107Z,47.07
2023-05-11T23:13:40.098Z,47.12
2023-05-11T23:16:08.732Z,47.47
2023-05-11T23:18:35.828Z,47.82
2023-05-11T23:21:02.935Z,47.38
2023-05-11T23:23:30.005Z,48.26
2023-05-11T23:25:57.297Z,48.30
2023-05-11T23:28:30.477Z,48.16
2023-05-11T23:30:57.513Z,48.65
2023-05-11T23:33:24.554Z,48.65
2023-05-11T23:35:51.972Z,48.84
2023-05-11T23:38:19.389Z,49.18
2023-05-11T23:40:46.494Z,48.86
2023-05-11T23:43:13.554Z,49.53
2023-05-11T23:45:40.793Z,49.01
2023-05-11T23:48:07.852Z,51.09
2023-05-11T23:50:35.036Z,51.31
2023-05-11T23:53:02.095Z,51.50
2023-05-11T23:55:29.172Z,52.63
2023-05-11T23:57:58.784Z,52.48
